createdAt,value
2017-02-14T00:00:51.534Z,46.98
2017-02-14T00:02:01.770Z,46.7
2017-02-14T00:03:11.684Z,46.51
2017-02-14T00:04:21.012Z,46.61
2017-02-14T00:05:32.079Z,46.7
2017-02-14T00:06:42.284Z,46.61
2017-02-14T00:07:52.061Z,46.89
2017-02-14T00:09:01.863Z,46.98
2017-02-14T00:10:12.038Z,46.98
2017-02-14T00:11:21.789Z,46.89
2017-02-14T00:12:31.554Z,46.98
2017-02-14T00:13:41.758Z,46.8
2017-02-14T00:14:52.033Z,46.8
2017-02-14T00:16:01.794Z,46.7
2017-02-14T00:17:11.999Z,47.08
2017-02-14T00:18:21.344Z,46.89
2017-02-14T00:19:31.097Z,46.89
2017-02-14T00:20:41.339Z,46.98
2017-02-14T00:21:51.548Z,46.98
2017-02-14T00:23:01.301Z,46.89
2017-02-14T00:24:10.632Z,46.8
2017-02-14T00:25:20.388Z,47.18
2017-02-14T00:26:29.744Z,46.98
2017-02-14T00:27:39.053Z,46.77
2017-02-14T00:28:48.799Z,47.08
2017-02-14T00:29:58.567Z,47.08
2017-02-14T00:31:08.307Z,47.25
2017-02-14T00:32:18.140Z,47.16
2017-02-14T00:33:28.355Z,47.27
2017-02-14T00:34:38.100Z,47.18
2017-02-14T00:35:47.873Z,47.06
2017-02-14T00:36:57.663Z,46.96
2017-02-14T00:38:07.918Z,46.96
2017-02-14T00:39:18.551Z,47.06
2017-02-14T00:40:28.338Z,46.67
2017-02-14T00:41:37.648Z,47.25
2017-02-14T00:42:47.417Z,46.96
2017-02-14T00:43:56.778Z,46.87
2017-02-14T00:45:06.963Z,46.87
2017-02-14T00:46:16.716Z,47.25
2017-02-14T00:47:26.470Z,47.82
2017-02-14T00:48:37.110Z,46.96
2017-02-14T00:49:46.942Z,47.44
2017-02-14T00:50:57.587Z,47.06
2017-02-14T00:52:07.781Z,47.06
2017-02-14T00:53:17.967Z,47.06
2017-02-14T00:54:28.168Z,47.25
2017-02-14T00:55:38.860Z,47.06
2017-02-14T00:56:49.935Z,47.53
2017-02-14T00:57:59.760Z,47.25
2017-02-14T00:59:09.517Z,47.16
2017-02-14T01:00:19.277Z,47.34
2017-02-14T01:01:29.553Z,47.53
2017-02-14T01:02:40.205Z,47.73
2017-02-14T01:03:49.945Z,47.53
2017-02-14T01:04:59.249Z,47.16
2017-02-14T01:06:08.569Z,47.44
2017-02-14T01:07:19.246Z,47.53
2017-02-14T01:08:29.018Z,47.53
2017-02-14T01:09:39.652Z,47.73
2017-02-14T01:10:50.285Z,47.63
2017-02-14T01:11:59.638Z,47.53
2017-02-14T01:13:09.012Z,47.73
2017-02-14T01:14:18.792Z,47.44
2017-02-14T01:15:29.004Z,47.34
2017-02-14T01:16:38.321Z,47.44
2017-02-14T01:17:48.959Z,48.21
2017-02-14T01:18:58.905Z,48.02
2017-02-14T01:20:08.221Z,48.11
2017-02-14T01:21:18.852Z,48.02
2017-02-14T01:22:28.198Z,48.11
2017-02-14T01:23:38.386Z,47.82
2017-02-14T01:24:49.098Z,48.59
2017-02-14T01:25:58.852Z,48.59
2017-02-14T01:27:08.617Z,48.3
2017-02-14T01:28:17.949Z,48.49
2017-02-14T01:29:27.723Z,48.68
2017-02-14T01:30:37.520Z,48.59
2017-02-14T01:31:47.298Z,48.59
2017-02-14T01:32:57.518Z,48.68
2017-02-14T01:34:08.147Z,48.68
2017-02-14T01:35:17.925Z,48.59
2017-02-14T01:36:28.175Z,48.59
2017-02-14T01:37:38.368Z,48.78
2017-02-14T01:38:47.742Z,48.68
2017-02-14T01:39:58.364Z,48.95
2017-02-14T01:41:08.991Z,48.88
2017-02-14T01:42:18.799Z,48.85
2017-02-14T01:43:28.574Z,48.85
2017-02-14T01:44:39.219Z,48.88
2017-02-14T01:45:49.406Z,49.23
2017-02-14T01:46:59.599Z,49.07
2017-02-14T01:48:08.958Z,49.26
2017-02-14T01:49:18.302Z,49.33
2017-02-14T01:50:28.056Z,49.35
2017-02-14T01:51:38.730Z,49.33
2017-02-14T01:52:48.048Z,49.26
2017-02-14T01:53:57.859Z,49.33
2017-02-14T01:55:08.087Z,49.16
2017-02-14T01:56:18.734Z,49.33
2017-02-14T01:57:28.056Z,49.04
2017-02-14T01:58:37.813Z,49.14
2017-02-14T01:59:47.614Z,49.35
2017-02-14T02:00:57.396Z,48.95
2017-02-14T02:02:07.631Z,49.14
2017-02-14T02:03:17.381Z,49.23
2017-02-14T02:04:27.580Z,49.14
2017-02-14T02:05:36.944Z,48.85
2017-02-14T02:06:46.722Z,48.95
2017-02-14T02:07:56.975Z,49.33
2017-02-14T02:09:06.719Z,49.23
2017-02-14T02:10:17.348Z,48.85
2017-02-14T02:11:26.767Z,49.04
2017-02-14T02:12:36.964Z,49.04
2017-02-14T02:13:46.720Z,49.43
2017-02-14T02:14:56.477Z,49.04
2017-02-14T02:16:05.810Z,48.95
2017-02-14T02:17:15.195Z,49.23
2017-02-14T02:18:25.415Z,49.14
2017-02-14T02:19:36.060Z,49.52
2017-02-14T02:20:46.264Z,49.14
2017-02-14T02:21:56.468Z,49.43
2017-02-14T02:23:07.142Z,49.71
2017-02-14T02:24:16.902Z,49.62
2017-02-14T02:25:27.125Z,49.52
2017-02-14T02:26:36.874Z,49.71
2017-02-14T02:27:47.063Z,49.71
2017-02-14T02:28:56.428Z,49.71
2017-02-14T02:30:05.741Z,49.33
2017-02-14T02:31:15.505Z,49.62
2017-02-14T02:32:25.708Z,49.43
2017-02-14T02:33:35.044Z,49.52
2017-02-14T02:34:45.286Z,49.62
2017-02-14T02:35:55.051Z,49.71
2017-02-14T02:37:04.388Z,49.33
2017-02-14T02:38:14.149Z,49.43
2017-02-14T02:39:23.914Z,49.33
2017-02-14T02:40:33.716Z,49.43
2017-02-14T02:41:43.483Z,49.52
2017-02-14T02:42:53.678Z,49.43
2017-02-14T02:44:03.432Z,49.23
2017-02-14T02:45:13.212Z,49.43
2017-02-14T02:46:23.181Z,49.43
2017-02-14T02:47:32.934Z,49.43
2017-02-14T02:48:42.698Z,50
2017-02-14T02:49:52.459Z,50.09
2017-02-14T02:51:02.230Z,49.9
2017-02-14T02:52:12.046Z,49.9
2017-02-14T02:53:22.266Z,49.62
2017-02-14T02:54:32.034Z,49.62
2017-02-14T02:55:42.236Z,49.9
2017-02-14T02:56:52.051Z,49.9
2017-02-14T02:58:02.301Z,49.43
2017-02-14T02:59:12.098Z,49.52
2017-02-14T03:00:21.866Z,49.8
2017-02-14T03:01:32.065Z,49.52
2017-02-14T03:02:41.383Z,49.62
2017-02-14T03:03:51.191Z,49.9
2017-02-14T03:05:01.400Z,49.9
2017-02-14T03:06:11.179Z,49.8
2017-02-14T03:07:20.937Z,49.8
2017-02-14T03:08:30.710Z,50.09
2017-02-14T03:09:40.973Z,49.71
2017-02-14T03:10:51.654Z,49.8
2017-02-14T03:12:01.420Z,49.71
2017-02-14T03:13:11.180Z,49.8
2017-02-14T03:14:20.505Z,49.71
2017-02-14T03:15:29.874Z,49.8
2017-02-14T03:16:39.674Z,50.09
2017-02-14T03:17:49.441Z,50
2017-02-14T03:18:59.217Z,50.48
2017-02-14T03:20:08.977Z,49.71
2017-02-14T03:21:18.816Z,50.29
2017-02-14T03:22:28.573Z,50.09
2017-02-14T03:23:38.334Z,50.09
2017-02-14T03:24:48.119Z,50.09
2017-02-14T03:25:57.896Z,50.29
2017-02-14T03:27:08.180Z,50.29
2017-02-14T03:28:17.946Z,50.29
2017-02-14T03:29:27.725Z,50.38
2017-02-14T03:30:37.521Z,50.19
2017-02-14T03:31:47.294Z,50.19
2017-02-14T03:32:57.126Z,50.19
2017-02-14T03:34:06.917Z,50.38
2017-02-14T03:35:16.685Z,50.19
2017-02-14T03:36:27.325Z,50.57
2017-02-14T03:37:37.100Z,50.38
2017-02-14T03:38:46.945Z,50.38
2017-02-14T03:39:57.579Z,50.19
2017-02-14T03:41:07.347Z,50.19
2017-02-14T03:42:17.561Z,50.19
2017-02-14T03:43:26.898Z,50.09
2017-02-14T03:44:37.155Z,50.48
2017-02-14T03:45:46.921Z,50.09
2017-02-14T03:46:56.265Z,49.9
2017-02-14T03:48:06.483Z,50.07
2017-02-14T03:49:16.283Z,50.26
2017-02-14T03:50:25.821Z,50.07
2017-02-14T03:51:35.198Z,50.26
2017-02-14T03:52:44.999Z,49.88
2017-02-14T03:53:55.213Z,50.48
2017-02-14T03:55:04.977Z,50.64
2017-02-14T03:56:15.247Z,50.55
2017-02-14T03:57:25.035Z,51.03
2017-02-14T03:58:35.673Z,50.84
2017-02-14T03:59:45.874Z,50.64
2017-02-14T04:00:56.080Z,50.55
2017-02-14T04:02:05.883Z,50.84
2017-02-14T04:03:16.082Z,50.64
2017-02-14T04:04:25.852Z,50.45
2017-02-14T04:05:35.619Z,50.64
2017-02-14T04:06:45.410Z,50.45
2017-02-14T04:07:55.228Z,50.84
2017-02-14T04:09:05.033Z,50.74
2017-02-14T04:10:14.357Z,50.64
2017-02-14T04:11:25.015Z,50.74
2017-02-14T04:12:34.832Z,50.74
2017-02-14T04:13:45.092Z,50.74
2017-02-14T04:14:54.842Z,50.74
2017-02-14T04:16:04.611Z,50.55
2017-02-14T04:17:14.371Z,50.64
2017-02-14T04:18:25.450Z,50.64
2017-02-14T04:19:35.371Z,50.74
2017-02-14T04:20:45.127Z,50.74
2017-02-14T04:21:54.916Z,50.64
2017-02-14T04:23:04.690Z,51.03
2017-02-14T04:24:14.455Z,50.93
2017-02-14T04:25:24.273Z,51.03
2017-02-14T04:26:34.045Z,50.84
2017-02-14T04:27:44.271Z,50.84
2017-02-14T04:28:54.500Z,50.84
2017-02-14T04:30:04.264Z,51.03
2017-02-14T04:31:14.222Z,51.12
2017-02-14T04:32:23.976Z,51.03
2017-02-14T04:33:33.313Z,50.64
2017-02-14T04:34:43.070Z,50.84
2017-02-14T04:35:52.843Z,50.84
2017-02-14T04:37:03.108Z,51.12
2017-02-14T04:38:12.862Z,50.74
2017-02-14T04:39:22.629Z,51.03
2017-02-14T04:40:32.823Z,51.03
2017-02-14T04:41:42.608Z,50.74
2017-02-14T04:42:53.339Z,51.03
2017-02-14T04:44:03.136Z,50.93
2017-02-14T04:45:12.453Z,50.74
2017-02-14T04:46:22.207Z,51.12
2017-02-14T04:47:31.977Z,51.12
2017-02-14T04:48:42.223Z,51.12
2017-02-14T04:49:52.426Z,51.12
2017-02-14T04:51:02.207Z,51.12
2017-02-14T04:52:11.987Z,51.12
2017-02-14T04:53:21.741Z,50.74
2017-02-14T04:54:31.999Z,50.64
2017-02-14T04:55:41.775Z,50.64
2017-02-14T04:56:51.965Z,51.12
2017-02-14T04:58:01.722Z,51.12
2017-02-14T04:59:11.502Z,51.12
2017-02-14T05:00:21.308Z,50.93
2017-02-14T05:01:31.097Z,51.12
2017-02-14T05:02:40.891Z,50.84
2017-02-14T05:03:51.126Z,50.74
2017-02-14T05:05:01.321Z,50.64
2017-02-14T05:06:11.146Z,50.64
2017-02-14T05:07:20.927Z,51.03
2017-02-14T05:08:30.733Z,51.03
2017-02-14T05:09:40.050Z,51.12
2017-02-14T05:10:49.803Z,51.03
2017-02-14T05:11:59.636Z,51.03
2017-02-14T05:13:09.406Z,51.12
2017-02-14T05:14:19.163Z,50.74
2017-02-14T05:15:29.367Z,50.84
2017-02-14T05:16:39.168Z,50.64
2017-02-14T05:17:49.410Z,51.21
2017-02-14T05:18:58.728Z,50.74
2017-02-14T05:20:08.507Z,50.74
2017-02-14T05:21:18.721Z,51.12
2017-02-14T05:22:28.485Z,51.5
2017-02-14T05:23:38.312Z,51.5
2017-02-14T05:24:48.057Z,51.31
2017-02-14T05:25:57.835Z,51.89
2017-02-14T05:27:07.597Z,51.79
2017-02-14T05:28:17.362Z,51.41
2017-02-14T05:29:27.733Z,51.41
2017-02-14T05:30:37.939Z,51.41
2017-02-14T05:31:47.736Z,51.21
2017-02-14T05:32:57.509Z,51.31
2017-02-14T05:34:07.697Z,51.41
2017-02-14T05:35:17.500Z,51.5
2017-02-14T05:36:26.829Z,51.12
2017-02-14T05:37:36.582Z,50.84
2017-02-14T05:38:46.391Z,51.12
2017-02-14T05:39:56.596Z,51.21
2017-02-14T05:41:07.296Z,50.93
2017-02-14T05:42:16.627Z,51.79
2017-02-14T05:43:27.712Z,51.5
2017-02-14T05:44:37.513Z,51.5
2017-02-14T05:45:47.714Z,51.41
2017-02-14T05:46:57.963Z,51.21
2017-02-14T05:48:07.724Z,51.41
2017-02-14T05:49:17.498Z,51.5
2017-02-14T05:50:27.262Z,51.7
2017-02-14T05:51:36.589Z,51.21
2017-02-14T05:52:46.397Z,51.09
2017-02-14T05:53:56.201Z,51.09
2017-02-14T05:55:05.516Z,50.74
2017-02-14T05:56:15.282Z,50.74
2017-02-14T05:57:25.051Z,50.74
2017-02-14T05:58:35.310Z,50.71
2017-02-14T05:59:44.617Z,50.74
2017-02-14T06:00:54.378Z,51.19
2017-02-14T06:02:04.160Z,51.29
2017-02-14T06:03:13.912Z,51.6
2017-02-14T06:04:23.385Z,51.6
2017-02-14T06:05:33.150Z,51.31
2017-02-14T06:06:43.357Z,50.74
2017-02-14T06:07:53.117Z,50.84
2017-02-14T06:09:03.307Z,50.55
2017-02-14T06:10:13.111Z,50.84
2017-02-14T06:11:22.880Z,50.55
2017-02-14T06:12:32.653Z,50.74
2017-02-14T06:13:42.411Z,50.84
2017-02-14T06:14:52.620Z,50.74
2017-02-14T06:16:02.593Z,50.35
2017-02-14T06:17:11.914Z,50.09
2017-02-14T06:18:21.236Z,50
2017-02-14T06:19:31.005Z,50.19
2017-02-14T06:20:40.789Z,50.09
2017-02-14T06:21:50.167Z,49.71
2017-02-14T06:22:59.965Z,49.71
2017-02-14T06:24:09.741Z,49.9
2017-02-14T06:25:19.979Z,50.19
2017-02-14T06:26:29.782Z,49.43
2017-02-14T06:27:40.041Z,49.23
2017-02-14T06:28:50.242Z,49.43
2017-02-14T06:30:00.446Z,49.43
2017-02-14T06:31:10.196Z,49.14
2017-02-14T06:32:19.949Z,49.04
2017-02-14T06:33:29.761Z,49.14
2017-02-14T06:34:39.980Z,49.26
2017-02-14T06:35:50.193Z,48.95
2017-02-14T06:37:00.390Z,48.68
2017-02-14T06:38:10.596Z,48.47
2017-02-14T06:39:20.408Z,48.38
2017-02-14T06:40:30.630Z,49.14
2017-02-14T06:41:40.396Z,48.75
2017-02-14T06:42:50.593Z,48.57
2017-02-14T06:43:59.917Z,48.47
2017-02-14T06:45:10.199Z,48.47
2017-02-14T06:46:19.971Z,48.59
2017-02-14T06:47:30.181Z,48.66
2017-02-14T06:48:39.949Z,48.02
2017-02-14T06:49:49.708Z,48.3
2017-02-14T06:50:59.533Z,48.3
2017-02-14T06:52:09.305Z,48.49
2017-02-14T06:53:19.074Z,48.11
2017-02-14T06:54:28.842Z,47.8
2017-02-14T06:55:39.493Z,48.39
2017-02-14T06:56:49.772Z,47.63
2017-02-14T06:58:00.892Z,47.89
2017-02-14T06:59:10.672Z,48.28
2017-02-14T07:00:20.438Z,48.3
2017-02-14T07:01:30.643Z,48.3
2017-02-14T07:02:40.023Z,48.21
2017-02-14T07:03:50.241Z,48.3
2017-02-14T07:05:00.010Z,48.11
2017-02-14T07:06:09.784Z,47.89
2017-02-14T07:07:20.013Z,47.8
2017-02-14T07:08:29.826Z,47.71
2017-02-14T07:09:39.595Z,47.42
2017-02-14T07:10:49.411Z,47.73
2017-02-14T07:11:59.606Z,47.42
2017-02-14T07:13:09.374Z,47.53
2017-02-14T07:14:20.072Z,47.63
2017-02-14T07:15:29.861Z,47.61
2017-02-14T07:16:39.631Z,47.63
2017-02-14T07:17:49.405Z,47.42
2017-02-14T07:19:00.050Z,47.71
2017-02-14T07:20:09.853Z,47.61
2017-02-14T07:21:19.623Z,47.23
2017-02-14T07:22:29.855Z,47.32
2017-02-14T07:23:39.182Z,47.32
2017-02-14T07:24:48.957Z,47.34
2017-02-14T07:25:59.208Z,47.13
2017-02-14T07:27:08.521Z,47.13
2017-02-14T07:28:18.281Z,47.71
2017-02-14T07:29:28.046Z,47.61
2017-02-14T07:30:37.819Z,47.71
2017-02-14T07:31:48.065Z,47.61
2017-02-14T07:32:57.850Z,46.96
2017-02-14T07:34:07.199Z,47.03
2017-02-14T07:35:16.973Z,47.32
2017-02-14T07:36:26.763Z,47.13
2017-02-14T07:37:36.579Z,47.32
2017-02-14T07:38:46.333Z,47.32
2017-02-14T07:39:56.122Z,46.84
2017-02-14T07:41:06.308Z,47.03
2017-02-14T07:42:16.072Z,46.87
2017-02-14T07:43:25.897Z,47.8
2017-02-14T07:44:35.697Z,46.94
2017-02-14T07:45:45.932Z,46.94
2017-02-14T07:46:55.702Z,47.13
2017-02-14T07:48:05.477Z,47.13
2017-02-14T07:49:15.299Z,46.75
2017-02-14T07:50:25.083Z,47.23
2017-02-14T07:51:36.601Z,47.13
2017-02-14T07:52:45.918Z,47.23
2017-02-14T07:53:56.160Z,47.13
2017-02-14T07:55:05.678Z,46.84
2017-02-14T07:56:15.914Z,46.87
2017-02-14T07:57:26.119Z,46.77
2017-02-14T07:58:35.876Z,47.25
2017-02-14T07:59:46.097Z,47.03
2017-02-14T08:00:55.903Z,47.06
2017-02-14T08:02:05.656Z,47.42
2017-02-14T08:03:16.309Z,46.94
2017-02-14T08:04:26.081Z,46.75
2017-02-14T08:05:36.283Z,46.87
2017-02-14T08:06:46.109Z,46.46
2017-02-14T08:07:55.910Z,46.67
2017-02-14T08:09:05.674Z,46.66
2017-02-14T08:10:15.445Z,46.56
2017-02-14T08:11:25.649Z,46.17
2017-02-14T08:12:35.479Z,46.94
2017-02-14T08:13:45.251Z,46.37
2017-02-14T08:14:55.020Z,46.56
2017-02-14T08:16:05.670Z,46.08
2017-02-14T08:17:15.435Z,45.72
2017-02-14T08:18:25.240Z,45.6
2017-02-14T08:19:35.014Z,45.51
2017-02-14T08:20:44.783Z,45.12
2017-02-14T08:21:54.988Z,45.6
2017-02-14T08:23:04.749Z,45.22
2017-02-14T08:24:14.998Z,44.84
2017-02-14T08:25:24.788Z,45.03
2017-02-14T08:26:35.000Z,44.74
2017-02-14T08:27:45.646Z,44.74
2017-02-14T08:28:55.871Z,44.84
2017-02-14T08:30:05.699Z,45.12
2017-02-14T08:31:15.501Z,44.45
2017-02-14T08:32:25.270Z,44.36
2017-02-14T08:33:35.057Z,44.45
2017-02-14T08:34:44.377Z,44.45
2017-02-14T08:35:54.226Z,43.88
2017-02-14T08:37:03.983Z,44.17
2017-02-14T08:38:13.761Z,44.17
2017-02-14T08:39:23.545Z,44.26
2017-02-14T08:40:33.310Z,44.07
2017-02-14T08:41:43.123Z,44.07
2017-02-14T08:42:52.876Z,43.88
2017-02-14T08:44:03.103Z,43.88
2017-02-14T08:45:12.880Z,44.07
2017-02-14T08:46:22.684Z,44.26
2017-02-14T08:47:32.502Z,44.36
2017-02-14T08:48:41.835Z,44.17
2017-02-14T08:49:51.610Z,43.88
2017-02-14T08:51:02.716Z,43.98
2017-02-14T08:52:12.474Z,43.98
2017-02-14T08:53:22.717Z,44.36
2017-02-14T08:54:34.244Z,44.36
2017-02-14T08:55:44.000Z,44.36
2017-02-14T08:56:54.659Z,44.17
2017-02-14T08:58:04.417Z,44.55
2017-02-14T08:59:14.221Z,44.36
2017-02-14T09:00:24.007Z,44.55
2017-02-14T09:01:33.804Z,44.93
2017-02-14T09:02:43.581Z,45.03
2017-02-14T09:03:54.250Z,44.93
2017-02-14T09:05:04.065Z,44.65
2017-02-14T09:06:14.703Z,44.65
2017-02-14T09:07:24.026Z,44.93
2017-02-14T09:08:33.778Z,44.93
2017-02-14T09:09:43.992Z,44.93
2017-02-14T09:10:54.281Z,44.93
2017-02-14T09:12:04.070Z,44.93
2017-02-14T09:13:13.410Z,44.93
2017-02-14T09:14:24.060Z,44.84
2017-02-14T09:15:33.825Z,44.86
2017-02-14T09:16:43.630Z,44.86
2017-02-14T09:17:53.859Z,44.84
2017-02-14T09:19:04.957Z,44.95
2017-02-14T09:20:14.287Z,44.86
2017-02-14T09:21:24.939Z,44.95
2017-02-14T09:22:34.841Z,44.86
2017-02-14T09:23:44.597Z,44.95
2017-02-14T09:24:53.911Z,44.95
2017-02-14T09:26:04.123Z,44.95
2017-02-14T09:27:14.349Z,44.86
2017-02-14T09:28:24.167Z,45.15
2017-02-14T09:29:33.972Z,45.05
2017-02-14T09:30:44.190Z,44.95
2017-02-14T09:31:53.522Z,44.95
2017-02-14T09:33:03.279Z,44.48
2017-02-14T09:34:13.152Z,45.15
2017-02-14T09:35:23.362Z,44.38
2017-02-14T09:36:32.670Z,44.38
2017-02-14T09:37:42.868Z,44.19
2017-02-14T09:38:52.639Z,44.29
2017-02-14T09:40:02.892Z,44.48
2017-02-14T09:41:12.659Z,44.48
2017-02-14T09:42:22.445Z,44.38
2017-02-14T09:43:32.242Z,44.38
2017-02-14T09:44:42.011Z,44.09
2017-02-14T09:45:51.819Z,44
2017-02-14T09:47:01.581Z,44.09
2017-02-14T09:48:11.794Z,43.92
2017-02-14T09:49:22.026Z,44.09
2017-02-14T09:50:32.245Z,44.02
2017-02-14T09:51:42.074Z,44.21
2017-02-14T09:52:51.857Z,44.19
2017-02-14T09:54:01.624Z,44.12
2017-02-14T09:55:11.401Z,44.4
2017-02-14T09:56:21.618Z,44.4
2017-02-14T09:57:31.430Z,44.12
2017-02-14T09:58:41.221Z,44.02
2017-02-14T09:59:51.439Z,43.92
2017-02-14T10:01:01.645Z,43.63
2017-02-14T10:02:11.408Z,43.73
2017-02-14T10:03:21.226Z,43.54
2017-02-14T10:04:30.981Z,43.35
2017-02-14T10:05:41.652Z,43.16
2017-02-14T10:06:51.426Z,43.56
2017-02-14T10:08:01.211Z,43.56
2017-02-14T10:09:11.043Z,43.56
2017-02-14T10:10:21.713Z,43.56
2017-02-14T10:11:31.467Z,43.27
2017-02-14T10:12:41.696Z,43.18
2017-02-14T10:13:51.485Z,43.18
2017-02-14T10:15:01.758Z,43.18
2017-02-14T10:16:11.107Z,43.18
2017-02-14T10:17:21.328Z,42.51
2017-02-14T10:18:30.653Z,42.9
2017-02-14T10:19:40.866Z,42.72
2017-02-14T10:20:50.672Z,42.82
2017-02-14T10:22:00.433Z,42.72
2017-02-14T10:23:10.244Z,42.53
2017-02-14T10:24:20.036Z,42.44
2017-02-14T10:25:29.807Z,42.44
2017-02-14T10:26:40.054Z,42.44
2017-02-14T10:27:49.838Z,42.14
2017-02-14T10:29:00.024Z,41.86
2017-02-14T10:30:10.245Z,42.14
2017-02-14T10:31:19.990Z,41.77
2017-02-14T10:32:30.251Z,41.86
2017-02-14T10:33:40.021Z,41.69
2017-02-14T10:34:49.782Z,41.5
2017-02-14T10:36:00.005Z,41.4
2017-02-14T10:37:10.207Z,41.11
2017-02-14T10:38:20.482Z,41.02
2017-02-14T10:39:30.255Z,41.02
2017-02-14T10:40:40.903Z,40.73
2017-02-14T10:41:51.098Z,40.44
2017-02-14T10:43:00.415Z,40.17
2017-02-14T10:44:09.804Z,39.89
2017-02-14T10:45:19.577Z,39.89
2017-02-14T10:46:29.326Z,39.7
2017-02-14T10:47:39.091Z,39.7
2017-02-14T10:48:48.870Z,39.7
2017-02-14T10:49:59.152Z,39.31
2017-02-14T10:51:09.395Z,39.03
2017-02-14T10:52:19.164Z,38.95
2017-02-14T10:53:30.311Z,38.64
2017-02-14T10:54:40.518Z,38.85
2017-02-14T10:55:49.984Z,38.85
2017-02-14T10:56:59.763Z,38.56
2017-02-14T10:58:10.414Z,38.47
2017-02-14T10:59:20.619Z,38.66
2017-02-14T11:00:30.429Z,38.76
2017-02-14T11:01:40.248Z,38.18
2017-02-14T11:02:50.451Z,38.09
2017-02-14T11:04:00.208Z,37.89
2017-02-14T11:05:09.515Z,37.8
2017-02-14T11:06:20.161Z,37.99
2017-02-14T11:07:30.418Z,38.01
2017-02-14T11:08:41.087Z,37.53
2017-02-14T11:09:51.786Z,37.24
2017-02-14T11:11:01.589Z,37.43
2017-02-14T11:12:12.431Z,37.53
2017-02-14T11:13:22.277Z,37.24
2017-02-14T11:14:32.935Z,37.15
2017-02-14T11:15:42.707Z,37.15
2017-02-14T11:16:52.911Z,36.86
2017-02-14T11:18:03.130Z,37.15
2017-02-14T11:19:13.391Z,36.66
2017-02-14T11:20:23.156Z,36.78
2017-02-14T11:21:33.366Z,36.76
2017-02-14T11:22:43.139Z,36.49
2017-02-14T11:23:52.932Z,36.58
2017-02-14T11:25:02.733Z,36.4
2017-02-14T11:26:12.518Z,36.4
2017-02-14T11:27:21.856Z,36.4
2017-02-14T11:28:31.641Z,36.11
2017-02-14T11:29:41.401Z,36.11
2017-02-14T11:30:51.635Z,35.91
2017-02-14T11:32:00.957Z,36.11
2017-02-14T11:33:11.162Z,36.01
2017-02-14T11:34:20.954Z,35.91
2017-02-14T11:35:30.273Z,35.55
2017-02-14T11:36:40.542Z,35.72
2017-02-14T11:37:50.313Z,35.53
2017-02-14T11:39:00.971Z,35.64
2017-02-14T11:40:10.305Z,35.64
2017-02-14T11:41:20.514Z,35.45
2017-02-14T11:42:30.335Z,35.16
2017-02-14T11:43:40.977Z,35.36
2017-02-14T11:44:51.169Z,35.16
2017-02-14T11:46:00.970Z,35.16
2017-02-14T11:47:11.187Z,35.36
2017-02-14T11:48:21.028Z,35.26
2017-02-14T11:49:30.785Z,34.88
2017-02-14T11:50:40.552Z,34.68
2017-02-14T11:51:50.308Z,34.68
2017-02-14T11:53:00.084Z,34.68
2017-02-14T11:54:09.899Z,34.49
2017-02-14T11:55:19.669Z,34.59
2017-02-14T11:56:29.425Z,34.31
2017-02-14T11:57:39.657Z,34.41
2017-02-14T11:58:49.873Z,34.31
2017-02-14T11:59:59.271Z,34.31
2017-02-14T12:01:09.042Z,34.22
2017-02-14T12:02:18.795Z,34.11
2017-02-14T12:03:28.572Z,34.51
2017-02-14T12:04:37.909Z,34.22
2017-02-14T12:05:47.729Z,34.31
2017-02-14T12:06:57.511Z,34.12
2017-02-14T12:08:07.268Z,34.12
2017-02-14T12:09:17.046Z,34.31
2017-02-14T12:10:27.251Z,34.12
2017-02-14T12:11:37.980Z,34.12
2017-02-14T12:12:47.749Z,34.12
2017-02-14T12:13:57.507Z,33.93
2017-02-14T12:15:07.279Z,33.84
2017-02-14T12:16:17.033Z,34.03
2017-02-14T12:17:27.838Z,33.93
2017-02-14T12:18:37.612Z,33.74
2017-02-14T12:19:47.833Z,33.54
2017-02-14T12:20:57.590Z,33.54
2017-02-14T12:22:07.394Z,33.74
2017-02-14T12:23:17.688Z,33.56
2017-02-14T12:24:27.462Z,33.64
2017-02-14T12:25:36.782Z,33.75
2017-02-14T12:26:46.999Z,33.75
2017-02-14T12:27:57.233Z,33.75
2017-02-14T12:29:07.043Z,33.75
2017-02-14T12:30:16.835Z,33.95
2017-02-14T12:31:27.038Z,33.85
2017-02-14T12:32:37.229Z,33.95
2017-02-14T12:33:46.986Z,33.75
2017-02-14T12:34:56.796Z,33.95
2017-02-14T12:36:06.572Z,33.75
2017-02-14T12:37:16.790Z,33.66
2017-02-14T12:38:26.999Z,33.66
2017-02-14T12:39:37.684Z,33.47
2017-02-14T12:40:48.477Z,33.56
2017-02-14T12:41:58.263Z,33.37
2017-02-14T12:43:08.056Z,33.37
2017-02-14T12:44:17.852Z,33.28
2017-02-14T12:45:28.498Z,33.28
2017-02-14T12:46:38.316Z,33.47
2017-02-14T12:47:48.085Z,33.47
2017-02-14T12:48:57.862Z,33.08
2017-02-14T12:50:08.947Z,33.37
2017-02-14T12:51:18.715Z,33.37
2017-02-14T12:52:28.521Z,33.28
2017-02-14T12:53:38.301Z,33.37
2017-02-14T12:54:48.084Z,33.28
2017-02-14T12:55:57.844Z,33.28
2017-02-14T12:57:07.622Z,33.28
2017-02-14T12:58:18.334Z,33.28
2017-02-14T12:59:28.114Z,33.28
2017-02-14T13:00:38.321Z,33.28
2017-02-14T13:01:48.113Z,32.89
2017-02-14T13:02:58.316Z,33.37
2017-02-14T13:04:08.127Z,33.28
2017-02-14T13:05:18.338Z,33.28
2017-02-14T13:06:28.138Z,33.28
2017-02-14T13:07:37.928Z,33.28
2017-02-14T13:08:47.696Z,33.18
2017-02-14T13:09:57.526Z,33.28
2017-02-14T13:11:07.308Z,33.37
2017-02-14T13:12:17.088Z,33.08
2017-02-14T13:13:27.309Z,33.47
2017-02-14T13:14:36.635Z,33.47
2017-02-14T13:15:46.485Z,33.56
2017-02-14T13:16:56.728Z,33.37
2017-02-14T13:18:06.497Z,33.56
2017-02-14T13:19:16.707Z,33.56
2017-02-14T13:20:26.025Z,33.47
2017-02-14T13:21:36.274Z,33.47
2017-02-14T13:22:46.031Z,33.75
2017-02-14T13:23:56.242Z,33.56
2017-02-14T13:25:06.047Z,33.75
2017-02-14T13:26:16.694Z,33.75
2017-02-14T13:27:26.496Z,33.95
2017-02-14T13:28:36.266Z,33.95
2017-02-14T13:29:46.030Z,33.85
2017-02-14T13:30:55.793Z,33.75
2017-02-14T13:32:05.569Z,33.75
2017-02-14T13:33:15.366Z,33.75
2017-02-14T13:34:24.695Z,33.85
2017-02-14T13:35:34.444Z,33.85
2017-02-14T13:36:44.216Z,33.74
2017-02-14T13:37:53.999Z,33.75
2017-02-14T13:39:04.266Z,33.64
2017-02-14T13:40:14.038Z,33.75
2017-02-14T13:41:23.794Z,33.64
2017-02-14T13:42:34.003Z,33.54
2017-02-14T13:43:43.773Z,33.64
2017-02-14T13:44:53.585Z,33.64
2017-02-14T13:46:03.366Z,33.64
2017-02-14T13:47:13.147Z,33.64
2017-02-14T13:48:23.361Z,33.74
2017-02-14T13:49:33.121Z,33.64
2017-02-14T13:50:43.062Z,33.54
2017-02-14T13:51:52.421Z,33.54
2017-02-14T13:53:02.187Z,33.64
2017-02-14T13:54:11.982Z,33.84
2017-02-14T13:55:21.764Z,33.84
2017-02-14T13:56:32.046Z,33.93
2017-02-14T13:57:42.719Z,34.03
2017-02-14T13:58:52.507Z,33.74
2017-02-14T14:00:02.297Z,33.93
2017-02-14T14:01:12.069Z,33.93
2017-02-14T14:02:21.900Z,33.93
2017-02-14T14:03:31.681Z,34.03
2017-02-14T14:04:41.916Z,33.93
2017-02-14T14:05:52.573Z,33.93
2017-02-14T14:07:02.356Z,34.12
2017-02-14T14:08:11.752Z,33.93
2017-02-14T14:09:22.839Z,34.22
2017-02-14T14:10:32.626Z,34.22
2017-02-14T14:11:42.405Z,34.22
2017-02-14T14:12:52.181Z,34.31
2017-02-14T14:14:02.907Z,34.12
2017-02-14T14:15:13.129Z,34.39
2017-02-14T14:16:22.905Z,34.3
2017-02-14T14:17:33.543Z,34.2
2017-02-14T14:18:43.743Z,34.59
2017-02-14T14:19:54.004Z,34.39
2017-02-14T14:21:04.222Z,34.39
2017-02-14T14:22:14.000Z,34.39
2017-02-14T14:23:23.794Z,34.59
2017-02-14T14:24:33.558Z,34.78
2017-02-14T14:25:43.388Z,34.76
2017-02-14T14:26:53.165Z,34.95
2017-02-14T14:28:03.370Z,35.26
2017-02-14T14:29:13.148Z,35.43
2017-02-14T14:30:22.905Z,35.14
2017-02-14T14:31:33.164Z,35.24
2017-02-14T14:32:43.373Z,35.43
2017-02-14T14:33:54.031Z,35.34
2017-02-14T14:35:03.788Z,35.24
2017-02-14T14:36:14.466Z,35.43
2017-02-14T14:37:24.726Z,35.63
2017-02-14T14:38:34.941Z,35.43
2017-02-14T14:39:45.170Z,35.91
2017-02-14T14:40:54.503Z,35.91
2017-02-14T14:42:04.724Z,36.01
2017-02-14T14:43:15.001Z,36.01
2017-02-14T14:44:25.225Z,36.32
2017-02-14T14:45:35.450Z,36.2
2017-02-14T14:46:45.680Z,36.32
2017-02-14T14:47:55.922Z,36.13
2017-02-14T14:49:05.767Z,36.13
2017-02-14T14:50:16.009Z,36.03
2017-02-14T14:51:25.813Z,36.03
2017-02-14T14:52:36.033Z,36.32
2017-02-14T14:53:46.716Z,36.2
2017-02-14T14:54:56.992Z,36.51
2017-02-14T14:56:07.229Z,36.7
2017-02-14T14:57:17.012Z,36.6
2017-02-14T14:58:26.781Z,36.49
2017-02-14T14:59:36.557Z,36.3
2017-02-14T15:00:46.390Z,36.7
2017-02-14T15:01:56.644Z,36.7
2017-02-14T15:03:06.848Z,36.6
2017-02-14T15:04:17.495Z,36.6